createdAt,value
2023-05-10T00:00:19.690Z,76.90
2023-05-10T00:02:48.332Z,77.00
2023-05-10T00:05:16.555Z,76.80
2023-05-10T00:07:45.947Z,77.00
2023-05-10T00:10:14.333Z,76.80
2023-05-10T00:12:42.499Z,76.90
2023-05-10T00:15:13.211Z,77.30
2023-05-10T00:17:41.462Z,77.60
2023-05-10T00:20:10.360Z,77.90
2023-05-10T00:22:38.341Z,78.30
2023-05-10T00:25:07.506Z,78.40
2023-05-10T00:27:35.588Z,78.90
2023-05-10T00:30:03.592Z,80.10
2023-05-10T00:32:32.967Z,79.40
2023-05-10T00:35:01.018Z,79.90
2023-05-10T00:37:29.022Z,79.50
2023-05-10T00:39:56.992Z,79.40
2023-05-10T00:42:25.037Z,79.30
2023-05-10T00:44:53.003Z,79.60
2023-05-10T00:47:21.131Z,80.20
2023-05-10T00:49:50.523Z,80.60
2023-05-10T00:52:18.625Z,80.50
2023-05-10T00:54:47.219Z,81.10
2023-05-10T00:57:15.233Z,80.60
2023-05-10T00:59:43.243Z,80.90
2023-05-10T01:02:11.404Z,81.60
2023-05-10T01:04:40.503Z,82.40
2023-05-10T01:07:09.840Z,83.10
2023-05-10T01:09:37.884Z,83.90
2023-05-10T01:12:07.970Z,84.00
2023-05-10T01:14:37.652Z,84.20
2023-05-10T01:17:07.027Z,84.10
2023-05-10T01:19:38.662Z,84.00
2023-05-10T01:22:18.002Z,84.60
2023-05-10T01:25:13.585Z,85.30
2023-05-10T01:27:56.568Z,86.00
2023-05-10T01:31:05.922Z,86.10
2023-05-10T01:33:40.104Z,85.90
2023-05-10T01:36:15.195Z,86.50
2023-05-10T01:38:51.196Z,86.90
2023-05-10T01:41:26.029Z,87.00
2023-05-10T01:44:01.810Z,86.60
2023-05-10T01:46:35.609Z,87.20
2023-05-10T01:49:06.146Z,87.00
2023-05-10T01:51:41.673Z,87.50
2023-05-10T01:54:12.911Z,88.30
2023-05-10T01:56:42.558Z,88.70
2023-05-10T01:59:17.356Z,88.60
2023-05-10T02:01:46.762Z,87.70
2023-05-10T02:04:19.928Z,88.50
2023-05-10T02:06:49.437Z,89.50
2023-05-10T02:09:18.594Z,89.20
2023-05-10T02:11:47.057Z,89.70
2023-05-10T02:14:16.377Z,90.20
2023-05-10T02:16:46.441Z,90.40
2023-05-10T02:19:17.329Z,90.50
2023-05-10T02:21:46.906Z,90.80
2023-05-10T02:24:17.168Z,91.00
2023-05-10T02:26:47.364Z,91.20
2023-05-10T02:29:16.628Z,91.10
2023-05-10T02:31:45.398Z,91.50
2023-05-10T02:34:15.615Z,91.60
2023-05-10T02:36:44.060Z,91.90
2023-05-10T02:39:14.526Z,92.20
2023-05-10T02:41:44.191Z,92.50
2023-05-10T02:44:13.927Z,92.40
2023-05-10T02:46:42.000Z,92.40
2023-05-10T02:49:10.185Z,92.60
2023-05-10T02:51:46.007Z,93.00
2023-05-10T02:54:17.751Z,93.10
2023-05-10T02:56:52.672Z,93.00
2023-05-10T02:59:20.683Z,92.80
2023-05-10T03:01:48.828Z,92.40
2023-05-10T03:04:17.077Z,92.50
2023-05-10T03:06:46.956Z,92.40
2023-05-10T03:09:16.836Z,92.90
2023-05-10T03:11:57.289Z,93.40
2023-05-10T03:14:36.779Z,93.70
2023-05-10T03:17:12.322Z,93.90
2023-05-10T03:19:47.954Z,94.00
2023-05-10T03:22:25.565Z,94.10
2023-05-10T03:24:56.485Z,93.70
2023-05-10T03:27:27.037Z,93.80
2023-05-10T03:29:56.946Z,94.10
2023-05-10T03:32:25.218Z,94.60
2023-05-10T03:34:53.170Z,94.50
2023-05-10T03:37:22.548Z,94.10
2023-05-10T03:39:50.572Z,94.10
2023-05-10T03:42:19.141Z,94.10
2023-05-10T03:44:47.191Z,94.40
2023-05-10T03:47:15.305Z,94.70
2023-05-10T03:49:43.334Z,95.40
2023-05-10T03:52:11.339Z,95.30
2023-05-10T03:54:40.629Z,95.40
2023-05-10T03:57:08.635Z,94.70
2023-05-10T03:59:36.581Z,94.60
2023-05-10T04:02:04.641Z,95.00
2023-05-10T04:04:32.662Z,95.50
2023-05-10T04:07:00.725Z,95.90
2023-05-10T04:09:28.710Z,95.40
2023-05-10T04:11:58.035Z,95.80
2023-05-10T04:14:26.047Z,95.70
2023-05-10T04:16:54.021Z,95.90
2023-05-10T04:19:22.399Z,95.70
2023-05-10T04:21:50.602Z,95.50
2023-05-10T04:24:18.581Z,95.60
2023-05-10T04:26:46.617Z,95.60
2023-05-10T04:29:15.945Z,95.50
2023-05-10T04:31:43.982Z,95.60
2023-05-10T04:34:11.950Z,95.90
2023-05-10T04:36:40.015Z,96.20
2023-05-10T04:39:08.100Z,96.10
2023-05-10T04:41:36.186Z,96.00
2023-05-10T04:44:04.166Z,96.00
2023-05-10T04:46:33.681Z,95.70
2023-05-10T04:49:02.112Z,95.10
2023-05-10T04:51:30.091Z,94.60
2023-05-10T04:54:06.108Z,94.10
2023-05-10T04:56:34.905Z,94.00
2023-05-10T04:59:02.919Z,93.60
2023-05-10T05:01:30.926Z,93.40
2023-05-10T05:04:00.621Z,93.00
2023-05-10T05:06:28.767Z,93.00
2023-05-10T05:08:56.831Z,92.50
2023-05-10T05:11:24.878Z,92.20
2023-05-10T05:13:52.922Z,91.90
2023-05-10T05:16:20.962Z,91.80
2023-05-10T05:18:48.938Z,91.20
2023-05-10T05:21:18.898Z,90.80
2023-05-10T05:23:47.275Z,90.60
2023-05-10T05:26:16.056Z,90.40
2023-05-10T05:28:44.234Z,89.70
2023-05-10T05:31:12.369Z,89.80
2023-05-10T05:33:40.821Z,89.00
2023-05-10T05:36:09.044Z,88.00
2023-05-10T05:38:38.393Z,87.80
2023-05-10T05:41:06.413Z,87.40
2023-05-10T05:43:36.668Z,87.20
2023-05-10T05:46:06.211Z,87.40
2023-05-10T05:48:34.218Z,85.70
2023-05-10T05:51:02.841Z,85.80
2023-05-10T05:53:31.513Z,85.00
2023-05-10T05:56:01.408Z,84.50
2023-05-10T05:58:29.519Z,83.40
2023-05-10T06:00:58.408Z,83.00
2023-05-10T06:03:26.705Z,82.30
2023-05-10T06:05:54.833Z,82.10
2023-05-10T06:08:23.453Z,81.80
2023-05-10T06:10:51.536Z,81.00
2023-05-10T06:13:20.957Z,80.40
2023-05-10T06:15:48.916Z,79.80
2023-05-10T06:18:16.872Z,79.40
2023-05-10T06:20:45.011Z,78.80
2023-05-10T06:23:13.072Z,78.20
2023-05-10T06:25:41.294Z,77.60
2023-05-10T06:28:09.398Z,77.20
2023-05-10T06:30:39.574Z,76.50
2023-05-10T06:33:07.687Z,75.90
2023-05-10T06:35:35.764Z,75.10
2023-05-10T06:38:03.695Z,74.30
2023-05-10T06:40:31.645Z,74.30
2023-05-10T06:42:59.649Z,73.80
2023-05-10T06:45:27.643Z,72.40
2023-05-10T06:47:57.073Z,71.30
2023-05-10T06:50:25.091Z,71.30
2023-05-10T06:52:53.354Z,70.50
2023-05-10T06:55:21.532Z,69.10
2023-05-10T06:57:49.664Z,68.10
2023-05-10T07:00:18.842Z,67.70
2023-05-10T07:02:47.753Z,67.50
2023-05-10T07:05:17.482Z,66.60
2023-05-10T07:07:45.579Z,66.40
2023-05-10T07:10:13.515Z,65.50
2023-05-10T07:12:42.719Z,65.20
2023-05-10T07:15:11.744Z,64.20
2023-05-10T07:17:40.802Z,63.90
2023-05-10T07:20:10.959Z,63.70
2023-05-10T07:22:40.458Z,63.40
2023-05-10T07:25:09.339Z,63.20
2023-05-10T07:27:37.426Z,62.50
2023-05-10T07:30:06.184Z,62.40
2023-05-10T07:32:34.283Z,61.60
2023-05-10T07:35:02.340Z,61.10
2023-05-10T07:37:30.476Z,60.80
2023-05-10T07:39:59.797Z,60.70
2023-05-10T07:42:27.819Z,60.00
2023-05-10T07:44:55.963Z,60.10
2023-05-10T07:47:24.493Z,58.80
2023-05-10T07:49:52.634Z,58.10
2023-05-10T07:52:22.397Z,57.10
2023-05-10T07:54:50.717Z,56.80
2023-05-10T07:57:20.151Z,56.50
2023-05-10T07:59:48.575Z,55.70
2023-05-10T08:02:16.722Z,50.20
2023-05-10T08:04:44.752Z,45.50
2023-05-10T08:07:12.811Z,43.00
2023-05-10T08:09:40.834Z,39.70
2023-05-10T08:12:08.859Z,37.80
2023-05-10T08:14:38.598Z,36.30
2023-05-10T08:17:06.967Z,33.80
2023-05-10T08:19:34.912Z,32.30
2023-05-10T08:22:02.956Z,32.90
2023-05-10T08:24:30.996Z,32.00
2023-05-10T08:26:59.349Z,32.40
2023-05-10T08:29:28.519Z,30.80
2023-05-10T08:31:59.879Z,29.10
2023-05-10T08:34:27.931Z,28.70
2023-05-10T08:36:56.057Z,28.20
2023-05-10T08:39:30.399Z,28.00
2023-05-10T08:42:05.954Z,27.70
2023-05-10T08:44:36.208Z,27.70
2023-05-10T08:47:08.702Z,27.00
2023-05-10T08:49:37.166Z,28.10
2023-05-10T08:52:06.652Z,27.40
2023-05-10T08:54:35.420Z,27.70
2023-05-10T08:57:04.112Z,26.80
2023-05-10T08:59:34.163Z,26.40
2023-05-10T09:02:02.536Z,24.50
2023-05-10T09:04:32.829Z,25.40
2023-05-10T09:07:00.892Z,27.00
2023-05-10T09:09:30.024Z,25.00
2023-05-10T09:11:58.412Z,24.60
2023-05-10T09:14:27.336Z,24.80
2023-05-10T09:16:56.290Z,22.90
2023-05-10T09:19:24.369Z,21.60
2023-05-10T09:21:53.683Z,20.50
2023-05-10T09:24:21.653Z,21.00
2023-05-10T09:26:50.413Z,22.00
2023-05-10T09:29:18.453Z,20.20
2023-05-10T09:31:48.717Z,20.30
2023-05-10T09:34:21.903Z,20.10
2023-05-10T09:36:55.632Z,20.90
2023-05-10T09:39:31.895Z,21.30
2023-05-10T09:42:00.822Z,21.00
2023-05-10T09:44:29.231Z,20.80
2023-05-10T09:46:57.343Z,21.90
2023-05-10T09:49:25.427Z,20.90
2023-05-10T09:52:05.692Z,21.90
2023-05-10T09:54:34.590Z,21.40
2023-05-10T09:57:02.865Z,19.20
2023-05-10T09:59:31.495Z,20.70
2023-05-10T10:02:01.725Z,20.20
2023-05-10T10:04:30.162Z,20.30
2023-05-10T10:07:02.682Z,20.30
2023-05-10T10:09:32.565Z,19.60
2023-05-10T10:12:01.884Z,19.60
2023-05-10T10:14:30.386Z,21.60
2023-05-10T10:17:06.513Z,22.50
2023-05-10T10:19:37.898Z,22.10
2023-05-10T10:22:06.943Z,21.90
2023-05-10T10:24:36.458Z,22.30
2023-05-10T10:27:17.190Z,23.20
2023-05-10T10:29:54.574Z,24.50
2023-05-10T10:32:30.363Z,25.80
2023-05-10T10:34:59.016Z,27.70
2023-05-10T10:37:45.215Z,29.30
2023-05-10T10:40:28.641Z,30.60
2023-05-10T10:42:57.451Z,31.90
2023-05-10T10:45:26.149Z,34.70
2023-05-10T10:48:11.484Z,35.50
2023-05-10T10:50:47.105Z,35.70
2023-05-10T10:53:15.441Z,36.30
2023-05-10T10:55:51.443Z,36.80
2023-05-10T10:58:32.306Z,37.50
2023-05-10T11:01:14.742Z,37.80
2023-05-10T11:03:43.485Z,38.80
2023-05-10T11:06:11.627Z,38.50
2023-05-10T11:08:50.618Z,39.40
2023-05-10T11:11:20.048Z,39.90
2023-05-10T11:13:51.175Z,39.90
2023-05-10T11:16:21.296Z,39.80
2023-05-10T11:18:59.554Z,39.70
2023-05-10T11:21:27.841Z,39.60
2023-05-10T11:23:58.519Z,38.50
2023-05-10T11:26:32.849Z,37.90
2023-05-10T11:29:01.923Z,38.30
2023-05-10T11:31:30.888Z,38.70
2023-05-10T11:34:00.604Z,38.70
2023-05-10T11:36:29.810Z,38.90
2023-05-10T11:38:58.688Z,38.70
2023-05-10T11:41:30.565Z,37.70
2023-05-10T11:43:59.659Z,37.20
2023-05-10T11:46:29.537Z,36.80
2023-05-10T11:49:01.697Z,36.60
2023-05-10T11:51:29.853Z,37.10
2023-05-10T11:53:58.786Z,38.20
2023-05-10T11:56:28.278Z,38.50
2023-05-10T11:58:58.091Z,38.50
2023-05-10T12:01:27.075Z,38.30
2023-05-10T12:03:59.591Z,38.70
2023-05-10T12:06:29.541Z,39.10
2023-05-10T12:08:57.735Z,39.90
2023-05-10T12:11:29.808Z,40.50
2023-05-10T12:13:58.271Z,40.90
2023-05-10T12:16:30.391Z,40.10
2023-05-10T12:18:59.737Z,40.40
2023-05-10T12:21:29.624Z,41.20
2023-05-10T12:24:03.095Z,40.80
2023-05-10T12:26:32.925Z,41.00
2023-05-10T12:29:14.845Z,40.50
2023-05-10T12:31:56.306Z,40.10
2023-05-10T12:34:28.907Z,39.80
2023-05-10T12:36:57.697Z,39.60
2023-05-10T12:39:25.931Z,39.40
2023-05-10T12:41:55.396Z,39.40
2023-05-10T12:44:23.321Z,39.40
2023-05-10T12:46:51.529Z,39.30
2023-05-10T12:49:20.649Z,39.40
2023-05-10T12:51:48.655Z,39.60
2023-05-10T12:54:16.641Z,40.00
2023-05-10T12:56:45.352Z,39.90
2023-05-10T12:59:14.771Z,40.20
2023-05-10T13:01:42.749Z,40.40
2023-05-10T13:04:10.915Z,40.30
2023-05-10T13:06:38.958Z,40.40
2023-05-10T13:09:06.960Z,41.00
2023-05-10T13:11:35.148Z,41.10
2023-05-10T13:14:04.252Z,41.10
2023-05-10T13:16:33.984Z,41.30
2023-05-10T13:19:02.123Z,41.30
2023-05-10T13:21:30.444Z,41.20
2023-05-10T13:23:58.931Z,41.00
2023-05-10T13:26:27.229Z,40.50
2023-05-10T13:28:56.597Z,40.10
2023-05-10T13:31:24.668Z,40.00
2023-05-10T13:33:54.034Z,40.20
2023-05-10T13:36:22.244Z,40.20
2023-05-10T13:38:50.233Z,40.40
2023-05-10T13:41:18.663Z,40.40
2023-05-10T13:43:46.666Z,40.70
2023-05-10T13:46:14.725Z,40.80
2023-05-10T13:48:42.981Z,41.30
2023-05-10T13:51:12.319Z,41.60
2023-05-10T13:53:40.316Z,41.70
2023-05-10T13:56:08.585Z,41.30
2023-05-10T13:58:37.496Z,41.80
2023-05-10T14:01:05.908Z,41.10
2023-05-10T14:03:34.098Z,40.50
2023-05-10T14:06:02.409Z,40.40
2023-05-10T14:08:31.728Z,40.90
2023-05-10T14:10:59.707Z,41.00
2023-05-10T14:13:27.679Z,41.20
2023-05-10T14:15:56.452Z,41.80
2023-05-10T14:18:24.679Z,42.00
2023-05-10T14:20:52.733Z,42.10
2023-05-10T14:23:24.989Z,42.40
2023-05-10T14:25:54.607Z,42.30
2023-05-10T14:28:23.789Z,42.60
2023-05-10T14:30:51.887Z,42.70
2023-05-10T14:33:20.229Z,43.20
2023-05-10T14:35:48.722Z,43.80
2023-05-10T14:38:17.076Z,43.70
2023-05-10T14:40:45.155Z,44.50
2023-05-10T14:43:14.443Z,43.50
2023-05-10T14:45:42.697Z,42.90
2023-05-10T14:48:13.217Z,42.60
2023-05-10T14:50:41.173Z,42.20
2023-05-10T14:53:09.190Z,41.40
2023-05-10T14:55:37.934Z,41.20
2023-05-10T14:58:05.913Z,41.70
2023-05-10T15:00:35.352Z,42.20
2023-05-10T15:03:04.522Z,42.30
2023-05-10T15:05:33.031Z,42.50
2023-05-10T15:08:01.416Z,42.90
2023-05-10T15:10:29.395Z,43.20
2023-05-10T15:12:57.417Z,43.30
2023-05-10T15:15:25.645Z,43.60
2023-05-10T15:17:55.058Z,43.80
2023-05-10T15:20:23.049Z,43.90
2023-05-10T15:22:51.220Z,44.00
2023-05-10T15:25:19.403Z,44.10
2023-05-10T15:27:47.573Z,44.10
2023-05-10T15:30:16.073Z,44.10
2023-05-10T15:32:44.199Z,43.80
2023-05-10T15:35:13.653Z,44.00
2023-05-10T15:37:41.589Z,43.90
2023-05-10T15:40:10.444Z,44.00
2023-05-10T15:42:38.493Z,43.80
2023-05-10T15:45:07.402Z,43.90
2023-05-10T15:47:35.399Z,43.90
2023-05-10T15:50:03.695Z,44.00
2023-05-10T15:52:33.112Z,44.30
2023-05-10T15:55:01.130Z,44.50
2023-05-10T15:57:29.086Z,44.40
2023-05-10T15:59:57.945Z,44.40
2023-05-10T16:02:26.035Z,44.60
2023-05-10T16:04:54.063Z,44.70
2023-05-10T16:07:22.089Z,44.70
2023-05-10T16:09:51.468Z,44.70
2023-05-10T16:12:19.506Z,44.90
2023-05-10T16:14:47.697Z,45.00
2023-05-10T16:17:16.343Z,45.20
2023-05-10T16:19:44.601Z,45.30
2023-05-10T16:22:12.670Z,45.50
2023-05-10T16:24:40.766Z,45.50
2023-05-10T16:27:10.152Z,46.00
2023-05-10T16:29:38.177Z,46.20
2023-05-10T16:32:07.039Z,46.40
2023-05-10T16:34:34.984Z,46.70
2023-05-10T16:37:02.979Z,46.80
2023-05-10T16:39:30.984Z,47.10
2023-05-10T16:41:59.022Z,47.00
2023-05-10T16:44:28.361Z,47.30
2023-05-10T16:46:56.332Z,47.60
2023-05-10T16:49:26.186Z,47.80
2023-05-10T16:51:54.446Z,47.80
2023-05-10T16:54:22.879Z,47.80
2023-05-10T16:56:50.843Z,47.90
2023-05-10T16:59:18.805Z,47.80
2023-05-10T17:01:48.553Z,47.90
2023-05-10T17:04:17.841Z,48.10
2023-05-10T17:06:45.999Z,48.90
2023-05-10T17:09:14.013Z,48.30
2023-05-10T17:11:42.104Z,48.50
2023-05-10T17:14:10.233Z,48.70
2023-05-10T17:16:38.327Z,49.40
2023-05-10T17:19:07.832Z,48.90
2023-05-10T17:21:35.865Z,49.10
2023-05-10T17:24:03.846Z,49.20
2023-05-10T17:26:31.859Z,49.40
2023-05-10T17:29:00.009Z,49.70
2023-05-10T17:31:28.708Z,50.00
2023-05-10T17:33:56.762Z,50.10
2023-05-10T17:36:26.312Z,50.50
2023-05-10T17:38:54.283Z,50.70
2023-05-10T17:41:23.303Z,51.10
2023-05-10T17:43:51.348Z,51.20
2023-05-10T17:46:19.402Z,51.50
2023-05-10T17:48:47.389Z,51.70
2023-05-10T17:51:15.393Z,51.90
2023-05-10T17:53:44.707Z,52.00
2023-05-10T17:56:12.777Z,52.30
2023-05-10T17:58:40.778Z,52.50
2023-05-10T18:01:08.844Z,53.10
2023-05-10T18:03:36.950Z,53.30
2023-05-10T18:06:05.469Z,53.50
2023-05-10T18:08:33.967Z,53.90
2023-05-10T18:11:03.279Z,54.80
2023-05-10T18:13:31.232Z,54.30
2023-05-10T18:15:59.375Z,54.70
2023-05-10T18:18:27.365Z,54.80
2023-05-10T18:20:57.831Z,55.20
2023-05-10T18:23:26.382Z,55.00
2023-05-10T18:25:54.471Z,55.30
2023-05-10T18:28:24.565Z,55.30
2023-05-10T18:30:52.746Z,55.30
2023-05-10T18:33:20.722Z,55.30
2023-05-10T18:35:48.779Z,55.30
2023-05-10T18:38:16.766Z,55.40
2023-05-10T18:40:44.744Z,55.60
2023-05-10T18:43:12.731Z,55.50
2023-05-10T18:45:42.131Z,55.70
2023-05-10T18:48:10.109Z,55.80
2023-05-10T18:50:38.046Z,56.00
2023-05-10T18:53:06.064Z,56.00
2023-05-10T18:55:34.049Z,56.40
2023-05-10T18:58:02.034Z,56.50
2023-05-10T19:00:29.982Z,56.70
2023-05-10T19:02:59.376Z,56.80
2023-05-10T19:05:30.346Z,57.50
2023-05-10T19:07:58.459Z,56.90
2023-05-10T19:10:26.441Z,57.10
2023-05-10T19:12:54.433Z,57.20
2023-05-10T19:15:22.631Z,57.60
2023-05-10T19:17:51.644Z,57.40
2023-05-10T19:20:21.199Z,57.40
2023-05-10T19:25:24.373Z,57.70
2023-05-10T19:27:52.684Z,57.90
2023-05-10T19:30:20.831Z,58.00
2023-05-10T19:32:48.892Z,57.90
2023-05-10T19:35:17.402Z,57.90
2023-05-10T19:37:47.410Z,58.00
2023-05-10T19:40:17.486Z,58.20
2023-05-10T19:42:45.566Z,58.10
2023-05-10T19:45:15.931Z,58.10
2023-05-10T19:47:44.247Z,58.00
2023-05-10T19:50:13.868Z,58.10
2023-05-10T19:52:41.894Z,58.30
2023-05-10T19:55:11.940Z,58.40
2023-05-10T19:57:39.943Z,58.50
2023-05-10T20:00:09.192Z,58.60
2023-05-10T20:02:37.194Z,58.60
2023-05-10T20:05:05.644Z,58.70
2023-05-10T20:07:33.647Z,59.00
2023-05-10T20:10:01.745Z,59.10
2023-05-10T20:12:31.166Z,59.20
2023-05-10T20:14:59.285Z,59.30
2023-05-10T20:17:27.264Z,59.30
2023-05-10T20:19:55.279Z,59.30
2023-05-10T20:22:23.261Z,59.50
2023-05-10T20:24:52.728Z,59.60
2023-05-10T20:27:21.738Z,59.60
2023-05-10T20:29:51.080Z,59.70
2023-05-10T20:32:19.064Z,59.70
2023-05-10T20:34:47.046Z,59.80
2023-05-10T20:37:15.369Z,59.90
2023-05-10T20:39:43.372Z,60.80
2023-05-10T20:42:11.452Z,60.20
2023-05-10T20:44:39.429Z,60.20
2023-05-10T20:47:09.162Z,60.40
2023-05-10T20:49:38.054Z,60.60
2023-05-10T20:52:06.296Z,60.80
2023-05-10T20:54:34.248Z,60.90
2023-05-10T20:57:02.753Z,61.10
2023-05-10T20:59:30.793Z,61.10
2023-05-10T21:01:58.997Z,61.20
2023-05-10T21:04:28.531Z,61.50
2023-05-10T21:06:56.992Z,61.40
2023-05-10T21:09:24.946Z,61.40
2023-05-10T21:11:53.604Z,61.70
2023-05-10T21:14:22.098Z,61.90
2023-05-10T21:16:51.184Z,62.10
2023-05-10T21:19:19.188Z,62.10
2023-05-10T21:21:48.673Z,62.30
2023-05-10T21:24:17.090Z,62.50
2023-05-10T21:26:45.452Z,62.50
2023-05-10T21:29:13.816Z,62.80
2023-05-10T21:31:41.810Z,62.90
2023-05-10T21:34:09.857Z,62.90
2023-05-10T21:36:37.829Z,63.00
2023-05-10T21:39:07.482Z,63.40
2023-05-10T21:41:35.880Z,63.30
2023-05-10T21:44:04.062Z,63.50
2023-05-10T21:46:32.056Z,63.00
2023-05-10T21:49:00.054Z,63.60
2023-05-10T21:51:29.160Z,63.70
2023-05-10T21:53:57.157Z,63.60
2023-05-10T21:56:26.522Z,63.70
2023-05-10T21:58:54.850Z,63.70
2023-05-10T22:01:22.888Z,63.80
2023-05-10T22:03:50.953Z,64.10
2023-05-10T22:06:19.002Z,64.10
2023-05-10T22:08:46.948Z,64.30
2023-05-10T22:11:14.898Z,64.40
2023-05-10T22:13:44.224Z,64.70
2023-05-10T22:16:12.215Z,64.70
2023-05-10T22:18:40.672Z,64.80
2023-05-10T22:21:10.437Z,64.80
2023-05-10T22:23:38.550Z,64.90
2023-05-10T22:26:06.643Z,64.90
2023-05-10T22:28:34.745Z,64.80
2023-05-10T22:31:04.223Z,65.10
2023-05-10T22:33:32.176Z,65.30
2023-05-10T22:36:00.168Z,65.30
2023-05-10T22:38:28.126Z,65.30
2023-05-10T22:40:56.104Z,65.60
2023-05-10T22:43:24.125Z,65.80
2023-05-10T22:45:52.448Z,65.60
2023-05-10T22:48:22.074Z,65.80
2023-05-10T22:50:50.038Z,65.60
2023-05-10T22:53:18.015Z,65.50
2023-05-10T22:55:47.083Z,65.60
2023-05-10T22:58:15.171Z,65.80
2023-05-10T23:00:43.151Z,66.10
2023-05-10T23:03:11.399Z,66.30
2023-05-10T23:05:40.800Z,66.80
2023-05-10T23:08:08.807Z,66.80
2023-05-10T23:10:37.836Z,66.90
2023-05-10T23:13:05.899Z,67.40
2023-05-10T23:15:35.617Z,68.00
2023-05-10T23:18:05.124Z,67.90
2023-05-10T23:20:33.519Z,68.00
2023-05-10T23:23:02.921Z,67.80
2023-05-10T23:25:30.946Z,68.00
2023-05-10T23:27:58.908Z,67.80
2023-05-10T23:30:26.897Z,68.50
2023-05-10T23:32:54.911Z,68.30
2023-05-10T23:35:22.922Z,68.40
2023-05-10T23:37:50.948Z,68.50
2023-05-10T23:40:20.600Z,68.90
2023-05-10T23:42:48.858Z,68.80
2023-05-10T23:45:16.962Z,68.80
2023-05-10T23:47:44.939Z,69.20
2023-05-10T23:50:13.015Z,69.40
2023-05-10T23:52:40.990Z,69.50
2023-05-10T23:55:10.059Z,69.80
2023-05-10T23:57:40.430Z,69.40
